Weather observations for the past three days for
Clarion
Imperial (Metric)
Date Time (cdt) Wind (mph) Vis. (mi.) Weather Sky Cond. Temperature (ºF) Relative Humidity Wind Chill (°F) Heat Index (°F) Pressure Precipitation (in)
Air Dwpt 6 hour altimeter (in) sea level (mb) 1 hr 3 hr 6 hr
Max. Min.
31 21:35 NE 3 8.00 Fair CLR 73.4 73.4 100% 29.94 0.0
31 21:15 Calm 10.00 Fair CLR 75.2 75.2 100% 73 29.94 0.0
31 20:55 Calm 10.00 Fair CLR 75.2 75.2 100% 73 29.93 0.0
31 20:35 Calm 10.00 A Few Clouds FEW025 75.2 75.2 100% 73 29.92 0.0
31 20:15 S 3 10.00 A Few Clouds FEW024 77 77 100% 78 29.92 0.0
31 19:55 Calm 9.00 Fair CLR 78.8 78.8 100% 83 29.92 0.0
31 19:35 Calm 8.00 Fair CLR 82.4 82.4 100% 96 29.92 0.0
31 19:15 Calm 8.00 Fair CLR 84.2 82.4 94% 101 29.91 0.0
31 18:55 Calm 10.00 Fair CLR 84.2 78.8 84% 96 29.91 0.0
31 18:35 W 3 10.00 Fair CLR 86 77 75% 97 29.92 0.0
31 18:15 W 5 10.00 Fair CLR 86 75.2 70% 95 29.92 0.0
31 17:55 W 6 10.00 Fair CLR 86 75.2 70% 95 29.91 0.0
31 17:35 Vrbl 7 10.00 Fair CLR 86 77 75% 97 29.91 0.0
31 17:15 W 7 10.00 Fair CLR 87.8 77 70% 100 29.91 0.0
31 16:55 SW 7 10.00 Fair CLR 87.8 77 70% 100 29.91 0.0
31 16:35 W 6 10.00 Fair CLR 86 75.2 70% 95 29.9 0.0
31 16:15 SW 7 10.00 Fair CLR 86 75.2 70% 95 29.9 0.0
31 15:55 SW 6 10.00 Fair CLR 86 75.2 70% 95 29.91 0.0
31 15:35 SW 6 10.00 Fair CLR 86 75.2 70% 95 29.91 0.0
31 15:15 W 7 G 13 10.00 Fair CLR 86 77 75% 97 29.91 0.0
31 14:55 SW 8 10.00 Fair CLR 86 78.8 79% 99 29.91 0.0
31 14:35 W 7 G 13 10.00 Fair CLR 86 78.8 79% 99 29.9 0.0
31 14:15 SW 9 10.00 Fair CLR 86 80.6 84% 102 29.9 0.0
31 13:55 SW 8 10.00 Fair CLR 84.2 82.4 94% 101 29.9 0.0
31 13:35 SW 8 10.00 Fair CLR 82.4 82.4 100% 96 29.9 0.0
31 13:15 S 6 10.00 Fair CLR 82.4 80.6 94% 94 29.89 0.0
31 12:55 Vrbl 5 10.00 Fair CLR 82.4 82.4 100% 96 29.88 0.0
31 12:35 Calm 9.00 Fair CLR 82.4 80.6 94% 94 29.88 0.0
31 12:15 E 5 10.00 Fair CLR 82.4 80.6 94% 94 29.87 0.0
31 11:55 Calm 10.00 Fair CLR 82.4 80.6 94% 94 29.88 0.0
31 11:35 NW 6 10.00 Fair CLR 82.4 80.6 94% 94 29.89 0.0
31 11:15 W 6 10.00 Fair CLR 80.6 80.6 100% 89 29.9 0.0
31 10:55 W 8 10.00 Fair CLR 82.4 80.6 94% 94 29.9 0.0
31 10:35 W 7 10.00 Fair CLR 82.4 80.6 94% 94 29.9 0.0
31 10:15 W 7 G 15 10.00 Fair CLR 82.4 80.6 94% 94 29.89 0.0
31 09:55 SW 7 10.00 Fair CLR 80.6 80.6 100% 89 29.88 0.0
31 09:35 SW 7 10.00 Fair CLR 78.8 78.8 100% 83 29.88 0.0
31 09:15 SW 7 10.00 Fair CLR 77 77 100% 78 29.88 0.0
31 08:55 SW 6 10.00 Fair CLR 73.4 73.4 100% 29.87 0.0
31 08:35 SW 6 10.00 Fair CLR 71.6 71.6 100% 29.86 0.0
31 08:15 S 7 10.00 Fair CLR 71.6 71.6 100% 29.85 0.0
31 07:55 S 6 10.00 Fair CLR 69.8 69.8 100% 29.85 0.0
31 07:35 S 6 10.00 Fair CLR 69.8 69.8 100% 29.84 0.0
31 07:15 S 6 10.00 Fair CLR 69.8 69.8 100% 29.83 0.0
31 06:55 S 5 10.00 Fair CLR 68 68 100% 29.83 0.0
31 06:35 S 6 10.00 Fair CLR 69.8 69.8 100% 29.83 0.0
31 06:15 S 7 10.00 Fair CLR 68 68 100% 29.83 0.0
31 05:55 S 6 10.00 Fair CLR 69.8 69.8 100% 29.83 0.0
31 05:35 S 6 10.00 Fair CLR 69.8 69.8 100% 29.82 0.0
31 05:15 S 6 10.00 Fair CLR 69.8 69.8 100% 29.82 0.0
31 04:55 S 6 10.00 Fair CLR 69.8 69.8 100% 29.82 0.0
31 04:35 S 5 10.00 Fair CLR 69.8 69.8 100% 29.82 0.0
31 04:15 S 6 10.00 Fair CLR 71.6 71.6 100% 29.82 0.0
31 03:55 S 6 10.00 Fair CLR 71.6 71.6 100% 29.82 0.0
31 03:35 S 7 10.00 Fair CLR 71.6 71.6 100% 29.82 0.0
31 03:15 S 6 10.00 Fair CLR 71.6 71.6 100% 29.82 0.0
31 02:55 S 6 10.00 Fair CLR 71.6 71.6 100% 29.82 0.0
31 02:35 S 6 10.00 Fair CLR 71.6 71.6 100% 29.81 0.0
31 02:15 S 6 0.00 NULL NULL 73.4 73.4 100% 29.81 0.0
31 01:55 S 6 10.00 Fair CLR 73.4 73.4 100% 29.81 0.0
31 01:35 S 6 10.00 Fair CLR 73.4 73.4 100% 29.82 0.0
31 01:15 Vrbl 5 10.00 Fair CLR 75.2 75.2 100% 73 29.82 0.0
31 00:55 S 6 10.00 Fair CLR 75.2 75.2 100% 73 29.82 0.0
31 00:35 S 8 10.00 Fair CLR 75.2 75.2 100% 73 29.82 0.0
31 00:15 S 8 10.00 Fair CLR 75.2 75.2 100% 73 29.82 0.0
30 23:55 S 6 10.00 Fair CLR 73.4 73.4 100% 29.82 0.0
30 23:35 SE 7 10.00 Fair CLR 73.4 73.4 100% 29.82 0.0
30 23:15 SE 8 10.00 Fair CLR 73.4 73.4 100% 29.82 0.0
30 22:55 SE 9 10.00 A Few Clouds FEW044 75.2 75.2 100% 73 29.82 0.0
30 22:35 SE 9 10.00 Fair CLR 73.4 73.4 100% 29.82 0.0
30 22:15 SE 10 G 16 10.00 A Few Clouds FEW050 75.2 75.2 100% 73 29.83 0.0
30 21:55 SE 10 10.00 Fair CLR 75.2 75.2 100% 73 29.83 0.0
30 21:35 SE 10 10.00 Fair CLR 75.2 75.2 100% 73 29.84 0.0
30 21:15 SE 10 10.00 Fair CLR 75.2 75.2 100% 73 29.84 0.0
30 20:55 SE 8 10.00 Fair CLR 75.2 75.2 100% 73 29.84 0.0
30 20:35 SE 8 10.00 Fair CLR 75.2 75.2 100% 73 29.83 0.0
30 20:15 SE 9 10.00 Fair CLR 75.2 75.2 100% 73 29.83 0.0
30 19:55 SE 9 10.00 Fair CLR 77 77 100% 78 29.83 0.0
30 19:35 S 10 10.00 Fair CLR 77 77 100% 78 29.83 0.0
30 19:15 S 10 10.00 Fair CLR 77 77 100% 78 29.82 0.0
30 18:55 S 10 10.00 Fair CLR 78.8 78.8 100% 83 29.82 0.0
30 18:35 SE 12 10.00 Fair CLR 78.8 78.8 100% 83 29.82 0.0
30 18:15 SE 8 G 15 10.00 Fair CLR 77 77 100% 78 29.83 0.0
30 17:55 S 10 10.00 Fair CLR 77 77 100% 78 29.82 0.0
30 17:35 S 9 10.00 Fair CLR 77 77 100% 78 29.82 0.0
30 17:15 S 12 10.00 Fair CLR 78.8 75.2 89% 82 29.81 0.0
30 16:55 S 12 10.00 Fair CLR 78.8 77 94% 83 29.82 0.0
30 16:35 S 12 10.00 Fair CLR 78.8 77 94% 83 29.81 0.0
30 16:15 S 9 G 17 10.00 Fair CLR 78.8 77 94% 83 29.81 0.0
30 15:55 S 12 10.00 Fair CLR 80.6 75.2 84% 86 29.81 0.0
30 15:35 S 12 10.00 Fair CLR 80.6 75.2 84% 86 29.82 0.0
30 15:15 S 13 10.00 Fair CLR 82.4 75.2 79% 89 29.83 0.0
30 14:55 S 12 10.00 Fair CLR 82.4 75.2 79% 89 29.83 0.0
30 14:35 S 12 10.00 Fair CLR 82.4 73.4 74% 88 29.82 0.0
30 14:15 S 12 10.00 Fair CLR 80.6 77 89% 87 29.82 0.0
30 13:55 S 9 10.00 Fair CLR 78.8 75.2 89% 82 29.83 0.0
30 13:35 S 8 G 14 10.00 Fair CLR 78.8 77 94% 83 29.84 0.0
30 13:15 S 9 10.00 Fair CLR 75.2 75.2 100% 73 29.84 0.0
30 12:35 S 9 G 17 0.00 NULL NULL 77 77 100% 78 29.84 0.0
30 12:15 S 9 10.00 Fair CLR 75.2 75.2 100% 73 29.85 0.0
30 11:55 S 9 10.00 Fair CLR 75.2 75.2 100% 73 29.85 0.0
30 11:35 S 9 10.00 Fair CLR 73.4 73.4 100% 29.83 0.0
30 11:15 S 5 10.00 Fair CLR 73.4 73.4 100% 29.85 0.0
30 10:55 W 6 10.00 A Few Clouds FEW055 73.4 73.4 100% 29.85 0.0 0.01
30 10:35 W 5 G 12 9.00 Mostly Cloudy SCT055 SCT070 BKN120 73.4 73.4 100% 29.84 0.0
30 10:15 SW 8 10.00 Mostly Cloudy FEW040 SCT085 BKN120 73.4 73.4 100% 29.83 0.0
30 09:35 SW 9 6.00 Fog/Mist FEW043 FEW060 BKN100 71.6 71.6 100% 29.85 0.0
30 09:15 S 8 10.00 Fair CLR 75.2 75.2 100% 73 29.81 0.0
30 08:55 S 8 10.00 Fair CLR 73.4 73.4 100% 29.81 0.0
30 08:35 S 8 10.00 Fair CLR 73.4 73.4 100% 29.81 0.0
30 08:15 S 8 10.00 Fair CLR 71.6 71.6 100% 29.81 0.0
30 07:55 S 8 10.00 Fair CLR 71.6 71.6 100% 29.81 0.0
30 07:35 S 6 10.00 Fair CLR 71.6 71.6 100% 29.81 0.0
30 07:15 S 7 10.00 Fair CLR 69.8 69.8 100% 29.81 0.0
30 06:55 S 7 10.00 Fair CLR 69.8 69.8 100% 29.81 0.0
30 06:35 S 8 10.00 Fair CLR 69.8 69.8 100% 29.81 0.0
30 06:15 S 7 10.00 Fair CLR 69.8 69.8 100% 29.81 0.0
30 05:55 S 9 10.00 Fair CLR 69.8 69.8 100% 29.81 0.0
30 05:35 S 8 10.00 Fair CLR 69.8 69.8 100% 29.81 0.0
30 05:15 S 8 10.00 Fair CLR 69.8 69.8 100% 29.81 0.0
30 04:55 S 9 10.00 Fair CLR 69.8 69.8 100% 29.81 0.0
30 04:35 S 9 10.00 Fair CLR 69.8 69.8 100% 29.81 0.0
30 04:15 S 13 10.00 Fair CLR 69.8 69.8 100% 29.81 0.0
30 03:55 S 10 10.00 Fair CLR 69.8 69.8 100% 29.81 0.0
30 03:35 S 12 10.00 A Few Clouds FEW050 FEW055 69.8 69.8 100% 29.81 0.0
30 03:15 S 8 10.00 Partly Cloudy SCT055 69.8 69.8 100% 29.81 0.0
30 02:55 S 7 10.00 Partly Cloudy SCT055 69.8 69.8 100% 29.82 0.0
30 02:35 S 7 10.00 Partly Cloudy SCT060 68 68 100% 29.82 0.0
30 02:15 S 7 10.00 Partly Cloudy SCT060 69.8 69.8 100% 29.82 0.0
30 01:55 S 6 10.00 A Few Clouds FEW055 FEW065 69.8 69.8 100% 29.83 0.0
30 01:35 SE 6 10.00 A Few Clouds FEW060 71.6 71.6 100% 29.83 0.0
30 01:15 SE 8 10.00 A Few Clouds FEW060 71.6 71.6 100% 29.83 0.0
30 00:55 SE 7 10.00 A Few Clouds FEW055 71.6 71.6 100% 29.84 0.0
30 00:35 SE 7 10.00 Partly Cloudy SCT055 69.8 69.8 100% 29.84 0.0
30 00:15 SE 7 10.00 Partly Cloudy FEW050 SCT055 69.8 69.8 100% 29.84 0.0
29 23:55 SE 6 10.00 Partly Cloudy SCT060 69.8 69.8 100% 29.84 0.0
29 23:35 SE 6 10.00 Partly Cloudy SCT060 71.6 71.6 100% 29.84 0.0
29 23:15 SE 6 10.00 Mostly Cloudy BKN060 69.8 69.8 100% 29.85 0.0
29 22:55 E 5 10.00 Mostly Cloudy SCT050 BKN060 69.8 69.8 100% 29.85 0.0
29 22:35 E 5 10.00 Partly Cloudy SCT055 71.6 71.6 100% 29.85 0.0
29 22:15 E 6 10.00 Partly Cloudy SCT055 73.4 73.4 100% 29.85 0.0
29 21:55 SE 5 10.00 Partly Cloudy SCT049 SCT055 73.4 73.4 100% 29.84 0.0
29 21:35 SE 7 10.00 Partly Cloudy SCT049 SCT055 75.2 75.2 100% 73 29.83 0.0
29 21:15 SE 7 10.00 A Few Clouds FEW055 75.2 75.2 100% 73 29.83 0.0
29 20:55 SE 8 10.00 A Few Clouds FEW045 FEW050 75.2 75.2 100% 73 29.83 0.0
29 20:35 SE 7 10.00 A Few Clouds FEW044 75.2 75.2 100% 73 29.82 0.0
29 20:15 SE 8 10.00 Fair CLR 75.2 75.2 100% 73 29.81 0.0
29 19:55 SE 8 10.00 Fair CLR 77 77 100% 78 29.81 0.0
29 19:35 S 9 10.00 Fair CLR 77 77 100% 78 29.81 0.0
29 19:15 S 8 10.00 Fair CLR 77 77 100% 78 29.82 0.0
29 18:55 S 7 10.00 Fair CLR 78.8 77 94% 83 29.83 0.0
29 18:35 S 7 10.00 Fair CLR 78.8 75.2 89% 82 29.83 0.0
29 18:15 S 8 10.00 Fair CLR 78.8 75.2 89% 82 29.83 0.0
29 17:55 S 9 10.00 Fair CLR 80.6 75.2 84% 86 29.82 0.0
29 17:35 S 9 10.00 Fair CLR 82.4 75.2 79% 89 29.82 0.0
29 16:55 S 13 10.00 Fair CLR 78.8 73.4 84% 82 29.82 0.0
29 16:35 S 14 G 21 10.00 Fair CLR 78.8 71.6 79% 82 29.82 0.0
29 16:15 S 14 G 25 10.00 Fair CLR 78.8 71.6 79% 82 29.83 0.0
29 15:55 S 15 G 23 10.00 Fair CLR 78.8 71.6 79% 82 29.83 0.0
29 15:35 S 13 G 21 10.00 Fair CLR 77 73.4 89% 78 29.84 0.0
29 15:15 S 16 G 23 10.00 Fair CLR 77 73.4 89% 78 29.85 0.0
29 14:55 S 10 G 17 10.00 Fair CLR 77 75.2 94% 78 29.86 0.0
29 14:35 S 13 10.00 Fair CLR 75.2 73.4 94% 74 29.87 0.0
29 14:15 S 14 G 21 10.00 Fair CLR 73.4 71.6 94% 29.86 0.0
29 13:55 S 18 G 29 10.00 Fair CLR 75.2 71.6 89% 75 29.86 0.0
29 13:35 S 20 G 28 10.00 Fair CLR 71.6 71.6 100% 29.85 0.0
29 13:15 S 18 G 30 10.00 Fair CLR 71.6 69.8 94% 29.86 0.0
29 12:55 S 21 10.00 Fair and Breezy CLR 69.8 69.8 100% 29.87 0.0
29 12:35 S 20 G 26 10.00 Fair CLR 69.8 69.8 100% 29.89 0.0
29 12:15 S 14 G 24 10.00 Fair CLR 71.6 69.8 94% 29.9 0.0
29 11:55 S 15 G 22 10.00 Fair CLR 71.6 69.8 94% 29.91 0.0
29 11:35 S 18 G 29 10.00 Fair CLR 71.6 69.8 94% 29.91 0.0
29 11:15 S 15 G 30 10.00 Fair CLR 69.8 69.8 100% 29.91 0.0
29 10:55 S 21 G 30 10.00 A Few Clouds and Breezy FEW055 FEW100 69.8 69.8 100% 29.9 0.0
29 10:35 S 23 G 29 10.00 Partly Cloudy and Breezy SCT055 SCT070 SCT085 69.8 68 94% 29.91 0.0
29 10:15 S 20 G 28 10.00 Partly Cloudy FEW055 FEW070 SCT110 68 68 100% 29.92 0.0
29 09:55 S 21 10.00 Fair and Breezy CLR 68 68 100% 29.93 0.0
29 09:35 S 17 G 25 10.00 A Few Clouds FEW100 66.2 66.2 100% 29.95 0.0
29 09:15 SE 15 G 21 10.00 Mostly Cloudy FEW055 FEW065 BKN110 64.4 64.4 100% 29.96 0.0
29 08:55 SE 14 G 22 9.00 Partly Cloudy FEW044 FEW055 SCT065 64.4 64.4 100% 29.99 0.0 0.01
29 08:35 SE 14 9.00 Mostly Cloudy FEW032 SCT040 BKN047 64.4 64.4 100% 30.01 0.0
29 08:15 SE 21 5.00 Fog/Mist and Breezy SCT031 BKN038 OVC043 64.4 64.4 100% 30 0.0
29 07:55 SE 8 3.00 Fog/Mist BKN030 BKN040 OVC065 64.4 64.4 100% 30.07 0.0 0.13
29 07:35 Calm 2.00 Fog/Mist FEW003 BKN029 OVC041 64.4 64.4 100% 30.1 0.0
29 07:15 Vrbl 6 G 13 4.00 Fog/Mist FEW004 SCT032 BKN040 64.4 64.4 100% 30.12 0.0
29 06:55 NE 5 7.00 Overcast SCT036 BKN046 OVC110 66.2 66.2 100% 30.06 0.0 0.01
29 06:35 SE 6 8.00 Mostly Cloudy FEW033 SCT041 BKN070 66.2 66.2 100% 30.02 0.0
29 06:15 Vrbl 5 10.00 Mostly Cloudy FEW031 SCT042 BKN060 66.2 66.2 100% 30.01 0.0
29 05:55 S 12 10.00 Overcast FEW029 BKN060 OVC070 68 68 100% 29.99 0.0
29 05:35 S 9 G 18 10.00 Mostly Cloudy FEW036 SCT047 BKN060 68 68 100% 29.98 0.0
29 05:15 S 13 G 21 10.00 Mostly Cloudy SCT038 SCT050 BKN065 68 68 100% 29.97 0.0
29 04:55 S 12 G 17 10.00 Mostly Cloudy FEW039 BKN110 68 68 100% 29.99 0.0
29 04:35 S 10 10.00 Mostly Cloudy BKN110 68 68 100% 29.99 0.0
29 04:15 S 12 10.00 Mostly Cloudy FEW040 BKN120 68 68 100% 30.01 0.0
29 03:55 S 10 G 17 10.00 Mostly Cloudy FEW035 BKN120 68 68 100% 29.99 0.0
29 03:35 S 10 G 17 10.00 Mostly Cloudy FEW030 SCT080 BKN120 68 68 100% 29.99 0.0
29 03:15 S 15 G 22 10.00 Mostly Cloudy FEW037 SCT100 BKN120 68 68 100% 29.99 0.0
29 02:55 S 10 10.00 Mostly Cloudy BKN120 68 68 100% 30.01 0.0
29 02:35 S 12 10.00 Fair CLR 68 68 100% 30.01 0.0
29 02:15 S 9 10.00 Fair CLR 68 68 100% 30.02 0.0
29 01:55 S 10 10.00 Fair CLR 68 68 100% 30.02 0.0
29 01:35 S 9 10.00 Fair CLR 69.8 69.8 100% 30.03 0.0
29 01:15 S 9 10.00 Fair CLR 69.8 69.8 100% 30.03 0.0
29 00:55 S 10 10.00 Partly Cloudy SCT100 SCT120 69.8 69.8 100% 30.04 0.0
29 00:35 S 10 10.00 Mostly Cloudy FEW075 BKN100 69.8 69.8 100% 30.04 0.0
29 00:15 S 7 10.00 A Few Clouds FEW033 FEW042 69.8 69.8 100% 30.04 0.0
28 23:55 S 7 10.00 Partly Cloudy SCT032 SCT041 68 68 100% 30.04 0.0
28 23:35 SE 8 10.00 Partly Cloudy FEW028 FEW042 SCT095 68 68 100% 30.04 0.0
28 23:15 SE 6 10.00 A Few Clouds FEW042 68 68 100% 30.05 0.0
28 22:55 SE 6 10.00 Partly Cloudy FEW024 FEW030 SCT041 68 68 100% 30.05 0.0
28 22:35 SE 8 10.00 Partly Cloudy FEW025 SCT032 SCT039 68 68 100% 30.05 0.0
28 22:15 SE 8 10.00 A Few Clouds FEW033 FEW042 68 68 100% 30.05 0.0
28 21:55 SE 7 10.00 Fair CLR 69.8 69.8 100% 30.05 0.0
Date Time (cdt) Wind (mph) Vis. (mi.) Weather Sky Cond. Air Dwpt Max. Min. Relative Humidity Wind Chill (°F) Heat Index (°F) altimeter (in) sea level (mb) 1 hr 3 hr 6 hr
6 hour
Temperature (ºF) Pressure Precipitation (in)